地図

経路データ

SID SEASON NUMBER BASIN SUBBASIN NAME ISO_TIME NATURE LAT LON WMO_WIND WMO_PRES WMO_AGENCY TRACK_TYPE DIST2LAND LANDFALL IFLAG USA_AGENCY USA_ATCF_ID USA_LAT USA_LON USA_RECORD USA_STATUS USA_WIND USA_PRES USA_SSHS USA_R34_NE USA_R34_SE USA_R34_SW USA_R34_NW USA_R50_NE USA_R50_SE USA_R50_SW USA_R50_NW USA_R64_NE USA_R64_SE USA_R64_SW USA_R64_NW USA_POCI USA_ROCI USA_RMW USA_EYE TOKYO_LAT TOKYO_LON TOKYO_GRADE TOKYO_WIND TOKYO_PRES TOKYO_R50_DIR TOKYO_R50_LONG TOKYO_R50_SHORT TOKYO_R30_DIR TOKYO_R30_LONG TOKYO_R30_SHORT TOKYO_LAND CMA_LAT CMA_LON CMA_CAT CMA_WIND CMA_PRES HKO_LAT HKO_LON HKO_CAT HKO_WIND HKO_PRES NEWDELHI_LAT NEWDELHI_LON NEWDELHI_GRADE NEWDELHI_WIND NEWDELHI_PRES NEWDELHI_CI NEWDELHI_DP NEWDELHI_POCI REUNION_LAT REUNION_LON REUNION_TYPE REUNION_WIND REUNION_PRES REUNION_TNUM REUNION_CI REUNION_RMW REUNION_R34_NE REUNION_R34_SE REUNION_R34_SW REUNION_R34_NW REUNION_R50_NE REUNION_R50_SE REUNION_R50_SW REUNION_R50_NW REUNION_R64_NE REUNION_R64_SE REUNION_R64_SW REUNION_R64_NW BOM_LAT BOM_LON BOM_TYPE BOM_WIND BOM_PRES BOM_TNUM BOM_CI BOM_RMW BOM_R34_NE BOM_R34_SE BOM_R34_SW BOM_R34_NW BOM_R50_NE BOM_R50_SE BOM_R50_SW BOM_R50_NW BOM_R64_NE BOM_R64_SE BOM_R64_SW BOM_R64_NW BOM_ROCI BOM_POCI BOM_EYE BOM_POS_METHOD BOM_PRES_METHOD NADI_LAT NADI_LON NADI_CAT NADI_WIND NADI_PRES WELLINGTON_LAT WELLINGTON_LON WELLINGTON_WIND WELLINGTON_PRES DS824_LAT DS824_LON DS824_STAGE DS824_WIND DS824_PRES TD9636_LAT TD9636_LON TD9636_STAGE TD9636_WIND TD9636_PRES TD9635_LAT TD9635_LON TD9635_WIND TD9635_PRES TD9635_ROCI NEUMANN_LAT NEUMANN_LON NEUMANN_CLASS NEUMANN_WIND NEUMANN_PRES MLC_LAT MLC_LON MLC_CLASS MLC_WIND MLC_PRES USA_GUST BOM_GUST BOM_GUST_PER REUNION_GUST REUNION_GUST_PER USA_SEAHGT USA_SEARAD_NE USA_SEARAD_SE USA_SEARAD_SW USA_SEARAD_NW STORM_SPEED STORM_DIR
1860011S14067 1860 2 SI MM NOT_NAMED 1860-01-11 06:00:00 NR -14.2000 67.3000 main 1214 1144 __________O___ -1 -14.2000 67.3000 7 13 231
1860011S14067 1860 2 SI MM NOT_NAMED 1860-01-11 09:00:00 NR -14.6087 66.7719 main 1144 1075 __________P___ -1 -14.6087 66.7719 7 13 231
1860011S14067 1860 2 SI MM NOT_NAMED 1860-01-11 12:00:00 NR -15.0135 66.2441 main 1066 996 __________P___ -1 -15.0135 66.2441 7 13 232
1860011S14067 1860 2 SI MM NOT_NAMED 1860-01-11 15:00:00 NR -15.4115 65.7194 main 996 927 __________P___ -1 -15.4115 65.7194 7 13 232
1860011S14067 1860 2 SI MM NOT_NAMED 1860-01-11 18:00:00 NR -15.8000 65.2000 main 927 858 __________O___ -1 -15.8000 65.2000 7 13 232
1860011S14067 1860 2 SI MM NOT_NAMED 1860-01-11 21:00:00 NR -16.1777 64.6880 main 858 795 __________P___ -1 -16.1777 64.6880 7 12 232
1860011S14067 1860 2 SI MM NOT_NAMED 1860-01-12 00:00:00 NR -16.5495 64.1840 main 795 726 __________P___ -1 -16.5495 64.1840 7 12 232
1860011S14067 1860 2 SI MM NOT_NAMED 1860-01-12 03:00:00 NR -16.9215 63.6880 main 726 658 __________P___ -1 -16.9215 63.6880 7 12 231
1860011S14067 1860 2 SI MM NOT_NAMED 1860-01-12 06:00:00 NR -17.3000 63.2000 main 658 590 __________O___ -1 -17.3000 63.2000 7 12 231
1860011S14067 1860 2 SI MM NOT_NAMED 1860-01-12 09:00:00 NR -17.6845 62.7051 main 590 523 __________P___ -1 -17.6845 62.7051 7 12 230
1860011S14067 1860 2 SI MM NOT_NAMED 1860-01-12 12:00:00 NR -18.0772 62.2193 main 523 465 __________P___ -1 -18.0772 62.2193 7 12 229
1860011S14067 1860 2 SI MM NOT_NAMED 1860-01-12 15:00:00 NR -18.4814 61.7488 main 455 398 __________P___ -1 -18.4814 61.7488 7 12 227
1860011S14067 1860 2 SI MM NOT_NAMED 1860-01-12 18:00:00 NR -18.9000 61.3000 main 398 329 __________O___ -1 -18.9000 61.3000 7 13 224
1860011S14067 1860 2 SI MM NOT_NAMED 1860-01-12 21:00:00 NR -19.3926 60.8226 main 329 275 __________P___ -1 -19.3926 60.8226 7 13 221
1860011S14067 1860 2 SI MM NOT_NAMED 1860-01-13 00:00:00 NR -19.8902 60.3741 main 275 229 __________P___ -1 -19.8902 60.3741 7 12 220
1860011S14067 1860 2 SI MM NOT_NAMED 1860-01-13 03:00:00 NR -20.3427 59.9883 main 229 202 __________P___ -1 -20.3427 59.9883 7 10 218
1860011S14067 1860 2 SI MM NOT_NAMED 1860-01-13 06:00:00 NR -20.7000 59.7000 main 202 189 __________O___ -1 -20.7000 59.7000 7 7 217
1860011S14067 1860 2 SI MM NOT_NAMED 1860-01-13 09:00:00 NR -20.8919 59.5399 main 189 189 __________P___ -1 -20.8919 59.5399 7 4 215
1860011S14067 1860 2 SI MM NOT_NAMED 1860-01-13 12:00:00 NR -20.9893 59.4785 main 193 193 __________P___ -1 -20.9893 59.4785 7 2 198
1860011S14067 1860 2 SI MM NOT_NAMED 1860-01-13 15:00:00 NR -21.0421 59.4779 main 193 193 __________P___ -1 -21.0421 59.4779 7 1 172
1860011S14067 1860 2 SI MM NOT_NAMED 1860-01-13 18:00:00 NR -21.1000 59.5000 main 198 198 __________O___ -1 -21.1000 59.5000 7 1 185
1860011S14067 1860 2 SI MM NOT_NAMED 1860-01-13 21:00:00 NR -21.1787 59.4616 main 202 193 __________P___ -1 -21.1787 59.4616 7 2 198
1860011S14067 1860 2 SI MM NOT_NAMED 1860-01-14 00:00:00 NR -21.2799 59.4407 main 197 197 __________P___ -1 -21.2799 59.4407 7 3 0
1860011S14067 1860 2 SI MM NOT_NAMED 1860-01-14 03:00:00 NR -21.4412 59.4494 main 203 203 __________P___ -1 -21.4412 59.4494 7 4 172
1860011S14067 1860 2 SI MM NOT_NAMED 1860-01-14 06:00:00 NR -21.7000 59.5000 main 229 229 __________O___ -1 -21.7000 59.5000 7 7 169
1860011S14067 1860 2 SI MM NOT_NAMED 1860-01-14 09:00:00 NR -22.1236 59.5824 main 265 265 __________P___ -1 -22.1236 59.5824 7 10 168
1860011S14067 1860 2 SI MM NOT_NAMED 1860-01-14 12:00:00 NR -22.6398 59.7099 main 312 312 __________P___ -1 -22.6398 59.7099 7 11 165
1860011S14067 1860 2 SI MM NOT_NAMED 1860-01-14 15:00:00 NR -23.1861 59.8825 main 377 377 __________P___ -1 -23.1861 59.8825 7 11 161
1860011S14067 1860 2 SI MM NOT_NAMED 1860-01-14 18:00:00 NR -23.7000 60.1000 main 434 434 __________O___ -1 -23.7000 60.1000 7 9 158
1860011S14067 1860 2 SI MM NOT_NAMED 1860-01-14 21:00:00 NR -24.0462 60.2517 main 473 473 __________P___ -1 -24.0462 60.2517 7 7 153
1860011S14067 1860 2 SI MM NOT_NAMED 1860-01-15 00:00:00 NR -24.3585 60.4600 main 522 522 __________P___ -1 -24.3585 60.4600 7 8 143
1860011S14067 1860 2 SI MM NOT_NAMED 1860-01-15 03:00:00 NR -24.6917 60.7880 main 567 567 __________P___ -1 -24.6917 60.7880 7 11 134
1860011S14067 1860 2 SI MM NOT_NAMED 1860-01-15 06:00:00 NR -25.1000 61.3000 main 632 632 __________O___ -1 -25.1000 61.3000 7 15 130
1860011S14067 1860 2 SI MM NOT_NAMED 1860-01-15 09:00:00 NR -25.6469 62.0434 main 719 719 __________P___ -1 -25.6469 62.0434 7 19 128
1860011S14067 1860 2 SI MM NOT_NAMED 1860-01-15 12:00:00 NR -26.2685 62.9796 main 843 843 __________P___ -1 -26.2685 62.9796 7 22 125
1860011S14067 1860 2 SI MM NOT_NAMED 1860-01-15 15:00:00 NR -26.9304 64.0514 main 966 966 __________P___ -1 -26.9304 64.0514 7 24 124
1860011S14067 1860 2 SI MM NOT_NAMED 1860-01-15 18:00:00 NR -27.6000 65.2000 main 1098 1098 __________O___ -1 -27.6000 65.2000 7 24 123
1860011S14067 1860 2 SI MM NOT_NAMED 1860-01-15 21:00:00 NR -28.2520 66.3754 main 1238 1238 __________P___ -1 -28.2520 66.3754 7 25 122
1860011S14067 1860 2 SI MM NOT_NAMED 1860-01-16 00:00:00 NR -28.8840 67.5676 main 1369 1369 __________P___ -1 -28.8840 67.5676 7 24 121
1860011S14067 1860 2 SI MM NOT_NAMED 1860-01-16 03:00:00 NR -29.4992 68.7762 main 1501 1501 __________P___ -1 -29.4992 68.7762 7 24 120
1860011S14067 1860 2 SI MM NOT_NAMED 1860-01-16 06:00:00 NR -30.1000 70.0000 main 1633 __________O___ -1 -30.1000 70.0000 7 24 120

IBTrACS Databaseについて

本データベースは、米国NOAAが公開する1842年以降の世界の熱帯低気圧のベストトラックデータアーカイブInternational Best Track Archive for Climate Stewardship (IBTrACS)を、ウェブで閲覧しやすい形式に変換したものです。

最終更新日:2021-10-08